Time;durP1;ratioP1;P1;durP2;ratioP2;P2;SDS_P1;SDS_P2;PMS_P1;PMS_P2;Temp;Humidity;BMP_temperature;BMP_pressure;BME280_temperature;BME280_humidity;BME280_pressure;Samples;Min_cycle;Max_cycle;Signal;HPM_P1;HPM_P2
2023/08/18 00:02:31;;;;;;;4.20;3.90;;;25.60;99.90;;;;;;6205432;28;88983;-72
2023/08/18 00:05:33;;;;;;;4.45;4.10;;;25.50;99.90;;;;;;6201161;28;90555;-72
2023/08/18 00:08:35;;;;;;;4.15;3.78;;;25.50;99.90;;;;;;6202891;28;89260;-73
2023/08/18 00:11:37;;;;;;;4.18;3.88;;;25.50;99.90;;;;;;6205778;28;87917;-73
2023/08/18 00:14:39;;;;;;;4.88;4.00;;;25.60;99.90;;;;;;6198508;28;89120;-72
2023/08/18 00:17:42;;;;;;;4.38;3.97;;;25.50;99.90;;;;;;6194174;28;89067;-72
2023/08/18 00:20:44;;;;;;;4.43;4.03;;;25.50;99.90;;;;;;6216462;28;89148;-72
2023/08/18 00:23:46;;;;;;;4.07;3.70;;;25.50;99.90;;;;;;6223573;28;89091;-71
2023/08/18 00:26:48;;;;;;;4.20;3.90;;;25.50;99.90;;;;;;6228714;28;88319;-72
2023/08/18 00:29:50;;;;;;;4.75;3.97;;;25.50;99.90;;;;;;6226094;28;89170;-72
2023/08/18 00:32:54;;;;;;;5.30;4.45;;;25.60;99.90;;;;;;6229802;28;89044;-71
2023/08/18 00:35:56;;;;;;;4.22;3.83;;;25.50;99.90;;;;;;6224013;28;90116;-72
2023/08/18 00:38:58;;;;;;;4.43;4.03;;;25.60;99.90;;;;;;6217774;28;89155;-72
2023/08/18 00:42:00;;;;;;;5.28;4.78;;;25.50;99.90;;;;;;6225800;28;89104;-71
2023/08/18 00:45:02;;;;;;;5.00;4.40;;;25.50;99.90;;;;;;6230512;28;89430;-71
2023/08/18 00:48:06;;;;;;;4.90;4.40;;;25.50;99.90;;;;;;6231902;28;88417;-71
2023/08/18 00:51:08;;;;;;;5.35;4.85;;;25.50;99.90;;;;;;6226239;28;89076;-72
2023/08/18 00:54:12;;;;;;;5.68;5.05;;;25.50;99.90;;;;;;6232187;28;89167;-72
2023/08/18 00:57:14;;;;;;;4.60;4.22;;;25.50;99.90;;;;;;6223545;28;88325;-73
2023/08/18 01:00:16;;;;;;;5.15;4.75;;;25.50;99.90;;;;;;6232065;28;89055;-71
2023/08/18 01:03:20;;;;;;;5.43;5.03;;;25.50;99.90;;;;;;6229700;28;89113;-71
2023/08/18 01:06:22;;;;;;;5.05;4.65;;;25.60;99.90;;;;;;6228897;28;89995;-70
2023/08/18 01:09:25;;;;;;;5.03;4.60;;;25.50;99.90;;;;;;6233117;28;89075;-71
2023/08/18 01:12:36;;;;;;;6.05;5.28;;;25.60;99.90;;;;;;6229265;28;88827;-71
2023/08/18 01:15:41;;;;;;;5.05;4.65;;;25.50;99.90;;;;;;6229399;28;89095;-71
2023/08/18 01:18:45;;;;;;;4.97;4.57;;;25.60;99.90;;;;;;6226399;28;90495;-71
2023/08/18 01:21:53;;;;;;;5.03;4.63;;;25.50;99.90;;;;;;6204649;28;89045;-71
2023/08/18 01:25:00;;;;;;;5.10;4.60;;;25.60;99.90;;;;;;6201866;28;89114;-71
2023/08/18 01:28:03;;;;;;;5.18;4.72;;;25.60;99.90;;;;;;6195618;28;88298;-71
2023/08/18 01:31:09;;;;;;;5.78;5.13;;;25.50;99.90;;;;;;6192200;28;89194;-72
2023/08/18 01:34:15;;;;;;;5.00;4.60;;;25.50;99.90;;;;;;6201247;28;88972;-73
2023/08/18 01:37:19;;;;;;;5.78;4.70;;;25.50;99.90;;;;;;6199454;28;90034;-73
2023/08/18 01:40:25;;;;;;;5.35;4.85;;;25.50;99.90;;;;;;6197062;28;89222;-73
2023/08/18 01:43:27;;;;;;;4.68;4.18;;;25.50;99.90;;;;;;6199041;28;89110;-71
2023/08/18 01:46:29;;;;;;;4.63;4.22;;;25.50;99.90;;;;;;6193238;28;88342;-72
2023/08/18 01:49:31;;;;;;;4.47;4.07;;;25.60;99.90;;;;;;6189225;28;89036;-71
2023/08/18 01:52:33;;;;;;;5.07;4.60;;;25.50;99.90;;;;;;6201622;28;89062;-72
2023/08/18 01:55:38;;;;;;;4.82;4.38;;;25.50;99.90;;;;;;6195760;28;89085;-72
2023/08/18 01:58:39;;;;;;;4.97;4.25;;;25.50;99.90;;;;;;6205470;28;88419;-72
2023/08/18 02:01:42;;;;;;;4.75;4.30;;;25.50;99.90;;;;;;6197770;28;89403;-72
2023/08/18 02:04:44;;;;;;;4.47;4.07;;;25.50;99.90;;;;;;6198924;28;89085;-72
2023/08/18 02:07:46;;;;;;;4.75;4.13;;;25.50;99.90;;;;;;6195236;28;89914;-72
2023/08/18 02:10:49;;;;;;;5.55;4.28;;;25.50;99.90;;;;;;6201365;28;89631;-72
2023/08/18 02:13:51;;;;;;;6.03;4.43;;;25.50;99.90;;;;;;6196956;28;89202;-72
2023/08/18 02:16:53;;;;;;;4.03;3.70;;;25.50;99.90;;;;;;6203057;28;89084;-71
2023/08/18 02:19:55;;;;;;;4.03;3.60;;;25.50;99.90;;;;;;6202656;28;89383;-72
2023/08/18 02:22:57;;;;;;;4.20;3.80;;;25.50;99.90;;;;;;6221132;28;89616;-71
2023/08/18 02:26:04;;;;;;;4.40;4.00;;;25.50;99.90;;;;;;6228554;28;89472;-72
2023/08/18 02:29:07;;;;;;;4.28;3.88;;;25.50;99.90;;;;;;6223123;28;88452;-71
2023/08/18 02:32:09;;;;;;;4.63;4.22;;;25.50;99.90;;;;;;6222290;28;89054;-71
2023/08/18 02:35:11;;;;;;;4.53;4.13;;;25.50;99.90;;;;;;6222039;28;89307;-71
2023/08/18 02:38:15;;;;;;;4.70;4.30;;;25.50;99.90;;;;;;6229509;28;90131;-71
2023/08/18 02:41:18;;;;;;;4.45;4.05;;;25.50;99.90;;;;;;6222589;28;89266;-72
2023/08/18 02:44:20;;;;;;;4.90;4.40;;;25.50;99.90;;;;;;6219070;28;89545;-71
2023/08/18 02:47:22;;;;;;;4.45;4.05;;;25.50;99.90;;;;;;6226944;28;89066;-71
2023/08/18 02:50:24;;;;;;;4.22;3.92;;;25.50;99.90;;;;;;6223114;28;89110;-72
2023/08/18 02:53:26;;;;;;;4.45;4.05;;;25.50;99.90;;;;;;6222900;28;90105;-72
2023/08/18 02:56:31;;;;;;;3.88;3.58;;;25.50;99.90;;;;;;6224704;28;89095;-72
2023/08/18 02:59:33;;;;;;;4.60;4.20;;;25.50;99.90;;;;;;6239146;28;88261;-72
2023/08/18 03:02:35;;;;;;;4.40;3.88;;;25.50;99.90;;;;;;6230893;28;89335;-71
2023/08/18 03:05:38;;;;;;;4.53;4.13;;;25.50;99.90;;;;;;6230768;28;89372;-72
2023/08/18 03:08:40;;;;;;;5.00;4.60;;;25.50;99.90;;;;;;6229788;28;90084;-71
2023/08/18 03:11:43;;;;;;;4.75;4.30;;;25.50;99.90;;;;;;6231168;28;89155;-71
2023/08/18 03:14:45;;;;;;;5.65;4.55;;;25.50;99.90;;;;;;6221299;28;88963;-70
2023/08/18 03:17:48;;;;;;;4.82;4.43;;;25.40;99.90;;;;;;6230831;28;89253;-71
2023/08/18 03:20:51;;;;;;;5.65;4.35;;;25.40;99.90;;;;;;6221061;28;89333;-72
2023/08/18 03:23:53;;;;;;;4.45;4.10;;;25.50;99.90;;;;;;6218898;28;89149;-71
2023/08/18 03:26:56;;;;;;;4.50;4.10;;;25.50;99.90;;;;;;6226964;28;89073;-71
2023/08/18 03:29:58;;;;;;;4.82;4.43;;;25.40;99.90;;;;;;6231131;28;88358;-70
2023/08/18 03:33:00;;;;;;;3.90;3.60;;;25.50;99.90;;;;;;6225749;28;89027;-71
2023/08/18 03:36:02;;;;;;;4.88;4.47;;;25.50;99.90;;;;;;6220497;28;89754;-71
2023/08/18 03:39:05;;;;;;;4.60;4.28;;;25.40;99.90;;;;;;6226933;28;90051;-70
2023/08/18 03:42:08;;;;;;;4.60;4.20;;;25.40;99.90;;;;;;6229667;28;89191;-71
2023/08/18 03:45:11;;;;;;;3.80;3.50;;;25.50;99.90;;;;;;6226380;28;89416;-71
2023/08/18 03:48:13;;;;;;;5.00;3.72;;;25.40;99.90;;;;;;6211284;28;89043;-70
2023/08/18 03:51:15;;;;;;;4.10;3.80;;;25.40;99.90;;;;;;6219523;28;89077;-71
2023/08/18 03:54:17;;;;;;;4.15;3.75;;;25.40;99.90;;;;;;6228563;28;89093;-71
2023/08/18 03:57:20;;;;;;;4.43;3.90;;;25.40;99.90;;;;;;6223102;28;89188;-71
2023/08/18 04:00:22;;;;;;;4.10;3.80;;;25.40;99.90;;;;;;6228815;28;88281;-70
2023/08/18 04:03:24;;;;;;;4.18;3.78;;;25.40;99.90;;;;;;6237988;28;89359;-71
2023/08/18 04:06:26;;;;;;;5.95;4.45;;;25.40;99.90;;;;;;6225202;28;89035;-71
2023/08/18 04:09:28;;;;;;;5.30;4.80;;;25.40;99.90;;;;;;6219141;28;90398;-71
2023/08/18 04:12:32;;;;;;;4.97;4.43;;;25.40;99.90;;;;;;6224462;28;89025;-71
2023/08/18 04:15:33;;;;;;;5.05;4.55;;;25.40;99.90;;;;;;6227114;28;89062;-70
2023/08/18 04:18:35;;;;;;;4.32;3.97;;;25.40;99.90;;;;;;6227834;28;89122;-70
2023/08/18 04:21:37;;;;;;;4.85;4.45;;;25.40;99.90;;;;;;6208436;28;89427;-71
2023/08/18 04:24:40;;;;;;;4.55;4.15;;;25.40;99.90;;;;;;6186100;28;89132;-70
2023/08/18 04:27:44;;;;;;;4.82;4.32;;;25.40;99.90;;;;;;6199895;28;89156;-71
2023/08/18 04:30:46;;;;;;;4.10;3.65;;;25.40;99.90;;;;;;6196806;28;86322;-69
2023/08/18 04:33:48;;;;;;;4.38;3.90;;;25.40;99.90;;;;;;6207394;28;89435;-70
2023/08/18 04:36:50;;;;;;;4.15;3.75;;;25.40;99.90;;;;;;6195204;28;89070;-70
2023/08/18 04:39:53;;;;;;;3.92;3.55;;;25.50;99.90;;;;;;6198936;28;89997;-70
2023/08/18 04:42:56;;;;;;;4.50;4.10;;;25.40;99.90;;;;;;6204945;28;89146;-70
2023/08/18 04:45:58;;;;;;;4.40;3.65;;;25.50;99.90;;;;;;6202388;28;88970;-70
2023/08/18 04:49:00;;;;;;;3.95;3.65;;;25.40;99.90;;;;;;6203558;28;88909;-70
2023/08/18 04:52:02;;;;;;;4.03;3.63;;;25.50;99.90;;;;;;6201523;28;88599;-70
2023/08/18 04:55:05;;;;;;;4.10;3.75;;;25.50;99.90;;;;;;6193238;28;89034;-70
2023/08/18 04:58:12;;;;;;;3.95;3.60;;;25.40;99.90;;;;;;6202970;28;89187;-70
2023/08/18 05:01:14;;;;;;;4.03;3.58;;;25.50;99.90;;;;;;6206097;28;88836;-70
2023/08/18 05:04:16;;;;;;;4.18;3.80;;;25.40;99.90;;;;;;6193514;28;88859;-70
2023/08/18 05:07:20;;;;;;;3.55;3.25;;;25.40;99.90;;;;;;6199473;28;89112;-70
2023/08/18 05:10:22;;;;;;;3.92;3.53;;;25.40;99.90;;;;;;6196310;28;90350;-70
2023/08/18 05:13:25;;;;;;;4.05;3.60;;;25.40;99.90;;;;;;6200227;28;89236;-70
2023/08/18 05:16:27;;;;;;;4.40;3.50;;;25.40;99.90;;;;;;6185182;28;89089;-69
2023/08/18 05:19:29;;;;;;;4.50;4.10;;;25.40;99.90;;;;;;6180228;28;89197;-69
2023/08/18 05:22:32;;;;;;;4.15;3.67;;;25.40;99.90;;;;;;6211806;28;89425;-69
2023/08/18 05:25:34;;;;;;;4.00;3.70;;;25.40;99.90;;;;;;6203925;28;89044;-70
2023/08/18 05:28:37;;;;;;;4.30;3.90;;;25.40;99.90;;;;;;6197387;28;89192;-69
2023/08/18 05:31:39;;;;;;;5.57;3.90;;;25.40;99.90;;;;;;6206351;28;88343;-71
2023/08/18 05:34:41;;;;;;;4.45;4.05;;;25.40;99.90;;;;;;6208045;28;89222;-70
2023/08/18 05:37:43;;;;;;;4.43;3.85;;;25.40;99.90;;;;;;6208219;28;89124;-70
2023/08/18 05:40:46;;;;;;;4.82;4.05;;;25.30;99.90;;;;;;6208688;28;89972;-70
2023/08/18 05:43:50;;;;;;;5.28;4.18;;;25.40;99.90;;;;;;6195872;28;89111;-70
2023/08/18 05:46:52;;;;;;;4.43;4.03;;;25.30;99.90;;;;;;6203305;28;87915;-71
2023/08/18 05:49:54;;;;;;;4.47;4.07;;;25.40;99.90;;;;;;6208226;28;87950;-70
2023/08/18 05:52:56;;;;;;;4.30;3.90;;;25.30;99.90;;;;;;6209222;28;89038;-69
2023/08/18 05:55:59;;;;;;;5.15;4.20;;;25.40;99.90;;;;;;6199026;28;89350;-70
2023/08/18 05:59:04;;;;;;;4.78;4.38;;;25.30;99.90;;;;;;6201948;28;89533;-70
2023/08/18 06:02:07;;;;;;;4.53;4.00;;;25.30;99.90;;;;;;6195138;28;88611;-70
2023/08/18 06:05:11;;;;;;;4.78;4.20;;;25.30;99.90;;;;;;6196913;28;89047;-70
2023/08/18 06:08:13;;;;;;;5.00;3.95;;;25.30;99.90;;;;;;6206078;28;89349;-70
2023/08/18 06:11:15;;;;;;;4.75;4.13;;;25.40;99.90;;;;;;6198937;28;89997;-70
2023/08/18 06:14:18;;;;;;;4.80;4.30;;;25.30;99.90;;;;;;6191311;28;89573;-70
2023/08/18 06:17:20;;;;;;;7.10;4.15;;;25.40;99.90;;;;;;6193863;28;89057;-69
2023/08/18 06:20:22;;;;;;;13.20;5.53;;;25.30;99.90;;;;;;6216826;28;88931;-72
2023/08/18 06:23:24;;;;;;;7.32;4.60;;;25.30;99.90;;;;;;6232101;28;89219;-71
2023/08/18 06:26:26;;;;;;;6.13;4.35;;;25.40;99.90;;;;;;6227943;28;89055;-71
2023/08/18 06:29:29;;;;;;;5.80;4.53;;;25.40;99.90;;;;;;6235430;28;88490;-70
2023/08/18 06:32:32;;;;;;;8.10;4.65;;;25.40;99.90;;;;;;6225435;28;87526;-71
2023/08/18 06:35:34;;;;;;;5.93;5.00;;;25.30;99.90;;;;;;6215538;28;89066;-70
2023/08/18 06:38:36;;;;;;;5.10;4.70;;;25.40;99.90;;;;;;6217135;28;88976;-70
2023/08/18 06:41:39;;;;;;;6.80;4.68;;;25.30;99.90;;;;;;6222074;28;90033;-70
2023/08/18 06:44:43;;;;;;;6.47;4.75;;;25.40;99.90;;;;;;6225963;28;88959;-70
2023/08/18 06:47:45;;;;;;;5.07;4.63;;;25.40;99.90;;;;;;6219874;28;89071;-70
2023/08/18 06:50:46;;;;;;;7.07;4.60;;;25.40;99.90;;;;;;6211557;28;89008;-70
2023/08/18 06:53:49;;;;;;;5.18;4.57;;;25.40;99.90;;;;;;6234078;28;89160;-70
2023/08/18 06:56:51;;;;;;;5.38;4.88;;;25.40;99.90;;;;;;6242200;28;89372;-70
2023/08/18 06:59:55;;;;;;;5.30;4.80;;;25.50;99.90;;;;;;6239572;28;89066;-70
2023/08/18 07:02:57;;;;;;;4.90;4.40;;;25.50;99.90;;;;;;6238354;28;88373;-70
2023/08/18 07:05:59;;;;;;;5.15;4.68;;;25.40;99.90;;;;;;6211895;28;89007;-70
2023/08/18 07:09:01;;;;;;;4.68;4.28;;;25.50;99.90;;;;;;6210183;28;89018;-70
2023/08/18 07:12:04;;;;;;;5.20;4.70;;;25.50;99.90;;;;;;6223518;28;90108;-70
2023/08/18 07:15:08;;;;;;;4.50;4.20;;;25.50;99.90;;;;;;6229772;28;89200;-70
2023/08/18 07:18:10;;;;;;;4.90;4.40;;;25.50;99.90;;;;;;6225499;28;88934;-70
2023/08/18 07:21:12;;;;;;;5.47;4.97;;;25.50;99.90;;;;;;6220427;28;89329;-71
2023/08/18 07:24:14;;;;;;;5.20;4.70;;;25.50;99.90;;;;;;6229401;28;89036;-70
2023/08/18 07:27:16;;;;;;;4.90;4.50;;;25.50;99.90;;;;;;6212763;28;89127;-70
2023/08/18 07:30:19;;;;;;;4.93;4.53;;;25.50;99.90;;;;;;6208373;28;89141;-70
2023/08/18 07:33:21;;;;;;;5.10;4.60;;;25.50;99.90;;;;;;6219048;28;88513;-70
2023/08/18 07:36:23;;;;;;;5.05;4.55;;;25.50;99.90;;;;;;6218097;28;89037;-70
2023/08/18 07:39:25;;;;;;;4.85;4.45;;;25.50;99.90;;;;;;6224997;28;89142;-70
2023/08/18 07:42:27;;;;;;;5.50;5.00;;;25.50;99.90;;;;;;6231206;28;90082;-70
2023/08/18 07:45:31;;;;;;;5.10;4.60;;;25.50;99.90;;;;;;6232265;28;89047;-71
2023/08/18 07:48:33;;;;;;;5.93;4.68;;;25.50;99.90;;;;;;6209459;28;88946;-70
2023/08/18 07:51:36;;;;;;;5.18;4.78;;;25.50;99.90;;;;;;6229660;28;89060;-71
2023/08/18 07:54:38;;;;;;;4.95;4.55;;;25.50;99.90;;;;;;6209378;28;88024;-70
2023/08/18 07:57:40;;;;;;;5.10;4.70;;;25.60;99.90;;;;;;6214166;28;89114;-70
2023/08/18 08:00:44;;;;;;;5.50;5.00;;;25.60;99.90;;;;;;6242424;28;89185;-70
2023/08/18 08:03:45;;;;;;;5.68;5.18;;;25.50;99.90;;;;;;6237223;28;88677;-70
2023/08/18 08:06:49;;;;;;;5.95;4.82;;;25.60;99.90;;;;;;6207853;28;89435;-70
2023/08/18 08:09:53;;;;;;;5.18;4.70;;;25.50;99.90;;;;;;6220903;28;89535;-70
2023/08/18 08:12:55;;;;;;;4.90;4.50;;;25.50;99.90;;;;;;6230483;28;90199;-70
2023/08/18 08:15:59;;;;;;;5.50;5.00;;;25.50;99.90;;;;;;6231112;28;89106;-70
2023/08/18 08:19:01;;;;;;;5.30;4.90;;;25.50;99.90;;;;;;6223241;28;87875;-71
2023/08/18 08:22:08;;;;;;;5.15;4.75;;;25.50;99.90;;;;;;6223291;28;89031;-70
2023/08/18 08:25:11;;;;;;;5.10;4.70;;;25.50;99.90;;;;;;6222040;28;89335;-70
2023/08/18 08:28:12;;;;;;;5.50;5.00;;;25.50;99.90;;;;;;6215946;28;89009;-70
2023/08/18 08:31:16;;;;;;;5.50;5.10;;;25.60;99.90;;;;;;6230284;28;88369;-70
2023/08/18 08:34:18;;;;;;;5.57;5.10;;;25.60;99.90;;;;;;6213582;28;87244;-71
2023/08/18 08:37:20;;;;;;;5.20;4.80;;;25.60;99.90;;;;;;6218264;28;89172;-70
2023/08/18 08:40:22;;;;;;;5.63;5.10;;;25.60;99.90;;;;;;6230484;28;89100;-70
2023/08/18 08:43:24;;;;;;;5.28;4.88;;;25.60;99.90;;;;;;6228245;28;89281;-70
2023/08/18 08:46:30;;;;;;;5.20;4.72;;;25.60;99.90;;;;;;6229114;28;89047;-70
2023/08/18 08:49:33;;;;;;;5.20;4.80;;;25.60;99.90;;;;;;6221645;28;88169;-70
2023/08/18 08:52:39;;;;;;;6.20;5.15;;;25.60;99.90;;;;;;6223082;28;88984;-70
2023/08/18 08:55:42;;;;;;;5.30;4.88;;;25.60;99.90;;;;;;6211620;28;89020;-70
2023/08/18 08:58:45;;;;;;;5.18;4.78;;;25.60;99.90;;;;;;6218061;28;89093;-71
2023/08/18 09:01:49;;;;;;;4.88;4.47;;;25.60;99.90;;;;;;6245514;28;89027;-70
2023/08/18 09:04:51;;;;;;;5.22;4.70;;;25.60;99.90;;;;;;6221243;28;87209;-71
2023/08/18 09:07:53;;;;;;;5.20;4.80;;;25.60;99.90;;;;;;6215845;28;89125;-70
2023/08/18 09:10:55;;;;;;;5.00;4.60;;;25.60;99.90;;;;;;6218146;28;90141;-71
2023/08/18 09:13:57;;;;;;;4.93;4.50;;;25.60;99.90;;;;;;6221377;28;90066;-70
2023/08/18 09:17:01;;;;;;;5.10;4.65;;;25.60;99.90;;;;;;6210699;28;89156;-70
2023/08/18 09:20:04;;;;;;;5.50;5.00;;;25.60;99.90;;;;;;6216617;28;89009;-71
2023/08/18 09:23:06;;;;;;;5.38;4.90;;;25.60;99.90;;;;;;6212335;28;89083;-70
2023/08/18 09:26:08;;;;;;;5.00;4.60;;;25.60;99.90;;;;;;6222022;28;88949;-71
2023/08/18 09:29:10;;;;;;;4.90;4.57;;;25.60;99.90;;;;;;6213975;28;89032;-70
2023/08/18 09:32:13;;;;;;;5.05;4.65;;;25.60;99.90;;;;;;6213104;28;89081;-71
2023/08/18 09:35:19;;;;;;;4.60;4.20;;;25.60;99.90;;;;;;6212757;28;88217;-71
2023/08/18 09:38:21;;;;;;;4.88;4.47;;;25.60;99.90;;;;;;6230277;28;89178;-70
2023/08/18 09:41:23;;;;;;;4.78;4.38;;;25.60;99.90;;;;;;6233918;28;89163;-70
2023/08/18 09:44:26;;;;;;;4.80;4.45;;;25.60;99.90;;;;;;6219640;28;90068;-70
2023/08/18 09:47:31;;;;;;;4.63;4.30;;;25.60;99.90;;;;;;6223401;28;89057;-70
2023/08/18 09:50:35;;;;;;;4.63;4.22;;;25.60;99.90;;;;;;6219129;28;89978;-71
2023/08/18 09:53:39;;;;;;;4.88;4.38;;;25.60;99.90;;;;;;6232709;28;89060;-71
2023/08/18 09:56:43;;;;;;;4.57;4.18;;;25.60;99.90;;;;;;6233015;28;88997;-71
2023/08/18 09:59:54;;;;;;;4.10;3.80;;;25.60;99.90;;;;;;6229154;28;89087;-71
2023/08/18 10:03:03;;;;;;;4.75;4.35;;;25.60;99.90;;;;;;6228303;28;89058;-71
2023/08/18 10:06:06;;;;;;;4.90;4.40;;;25.60;99.90;;;;;;6215191;28;88942;-72
2023/08/18 10:09:14;;;;;;;4.55;4.00;;;25.70;99.90;;;;;;6216616;28;89114;-71
2023/08/18 10:12:16;;;;;;;4.90;4.50;;;25.70;99.90;;;;;;6224558;28;89158;-71
2023/08/18 10:15:19;;;;;;;4.93;4.50;;;25.70;99.90;;;;;;6221060;28;90012;-71
2023/08/18 10:18:23;;;;;;;5.82;4.25;;;25.70;99.90;;;;;;6226487;28;88002;-71
2023/08/18 10:21:26;;;;;;;4.75;4.35;;;25.70;99.90;;;;;;6225156;28;89118;-71
2023/08/18 10:24:28;;;;;;;4.65;4.25;;;25.80;99.90;;;;;;6215765;28;89456;-71
2023/08/18 10:27:39;;;;;;;4.82;4.40;;;25.70;99.90;;;;;;6233812;28;89133;-72
2023/08/18 10:30:41;;;;;;;5.50;4.57;;;25.70;99.90;;;;;;6230770;28;89198;-71
2023/08/18 10:33:48;;;;;;;5.32;4.10;;;25.80;99.90;;;;;;6221971;28;89050;-72
2023/08/18 10:36:59;;;;;;;5.18;4.38;;;25.80;99.90;;;;;;6229369;28;87037;-71
2023/08/18 10:40:08;;;;;;;5.40;4.40;;;25.80;99.90;;;;;;6231398;28;87974;-71
2023/08/18 10:43:13;;;;;;;7.72;4.20;;;25.80;99.90;;;;;;6230682;28;89160;-71
2023/08/18 10:46:15;;;;;;;5.78;4.72;;;25.80;99.90;;;;;;6214985;28;89897;-71
2023/08/18 10:49:19;;;;;;;4.90;4.15;;;25.80;99.90;;;;;;6214356;28;87952;-71
2023/08/18 10:52:22;;;;;;;6.00;4.63;;;25.70;99.90;;;;;;6218970;28;89078;-72
2023/08/18 10:55:24;;;;;;;13.60;5.60;;;25.70;99.90;;;;;;6212619;28;88989;-72
2023/08/18 10:58:26;;;;;;;15.68;6.65;;;25.80;99.90;;;;;;6227253;28;89185;-72
2023/08/18 11:01:28;;;;;;;20.00;7.90;;;25.80;99.90;;;;;;6250189;28;89607;-71
2023/08/18 11:04:33;;;;;;;22.08;9.35;;;25.80;99.90;;;;;;6211048;28;89441;-72
2023/08/18 11:07:35;;;;;;;17.77;8.70;;;25.80;99.90;;;;;;6224884;28;87291;-72
2023/08/18 11:10:38;;;;;;;16.02;8.20;;;25.80;99.90;;;;;;6231973;28;89434;-72
2023/08/18 11:13:41;;;;;;;13.32;7.63;;;25.80;99.90;;;;;;6217942;28;89099;-72
2023/08/18 11:16:43;;;;;;;14.75;7.30;;;25.80;99.90;;;;;;6226490;28;90185;-72
2023/08/18 11:19:46;;;;;;;14.88;7.72;;;25.80;99.90;;;;;;6231172;28;89035;-72
2023/08/18 11:22:51;;;;;;;19.02;7.95;;;25.80;99.90;;;;;;6231885;28;88189;-71
2023/08/18 11:25:54;;;;;;;20.05;8.35;;;25.80;99.90;;;;;;6240178;27;89129;-72
2023/08/18 11:28:57;;;;;;;25.10;9.90;;;25.80;99.90;;;;;;6227946;28;89062;-72
2023/08/18 11:31:59;;;;;;;18.00;8.45;;;25.80;99.90;;;;;;6214207;28;88819;-72
2023/08/18 11:35:04;;;;;;;16.35;7.88;;;25.80;99.90;;;;;;6227482;28;89023;-72
2023/08/18 11:38:08;;;;;;;18.45;8.77;;;25.80;99.90;;;;;;6224059;28;88354;-71
2023/08/18 11:41:10;;;;;;;14.80;7.65;;;25.80;99.90;;;;;;6218132;28;89110;-72
2023/08/18 11:44:13;;;;;;;16.17;7.20;;;25.80;99.90;;;;;;6227306;28;89009;-74
2023/08/18 11:47:14;;;;;;;14.55;7.35;;;25.80;99.90;;;;;;6209448;28;89998;-75
2023/08/18 11:50:20;;;;;;;10.80;6.63;;;25.90;99.90;;;;;;6217655;28;88119;-74
2023/08/18 11:53:25;;;;;;;11.13;6.75;;;25.90;99.90;;;;;;6213214;28;88295;-74
2023/08/18 11:56:27;;;;;;;11.40;5.90;;;25.90;99.90;;;;;;6221751;28;89106;-74
2023/08/18 11:59:29;;;;;;;9.32;5.80;;;25.90;99.90;;;;;;6225931;28;89019;-74
2023/08/18 12:02:34;;;;;;;10.02;6.15;;;25.90;99.90;;;;;;6237247;28;89032;-74
2023/08/18 12:05:39;;;;;;;8.30;5.80;;;25.90;99.90;;;;;;6220065;28;89568;-75
2023/08/18 12:08:41;;;;;;;9.65;6.10;;;25.90;99.90;;;;;;6228738;28;87242;-73
2023/08/18 12:11:43;;;;;;;9.68;5.60;;;25.90;99.90;;;;;;6210717;28;89067;-74
2023/08/18 12:14:45;;;;;;;9.93;5.53;;;25.90;99.90;;;;;;6227705;28;87938;-74
2023/08/18 12:17:47;;;;;;;8.07;5.10;;;25.90;99.90;;;;;;6227319;28;90125;-74
2023/08/18 12:20:51;;;;;;;5.55;4.45;;;25.90;99.90;;;;;;6220430;27;89054;-75
2023/08/18 12:23:53;;;;;;;9.80;5.15;;;25.90;99.90;;;;;;6214701;28;89045;-74
2023/08/18 12:26:54;;;;;;;8.88;4.90;;;26.00;99.90;;;;;;6225263;28;89064;-73
2023/08/18 12:29:57;;;;;;;10.07;5.03;;;26.00;99.90;;;;;;6211534;28;89082;-74
2023/08/18 12:32:59;;;;;;;6.30;4.78;;;26.00;99.90;;;;;;6219200;28;89083;-74
2023/08/18 12:36:03;;;;;;;9.13;4.70;;;25.90;99.90;;;;;;6229686;28;89056;-71
2023/08/18 12:39:08;;;;;;;6.63;4.72;;;26.00;99.90;;;;;;6220925;28;87555;-74
2023/08/18 12:42:10;;;;;;;6.10;4.78;;;26.00;99.90;;;;;;6223748;28;88980;-76
2023/08/18 12:45:13;;;;;;;12.95;5.03;;;26.00;99.90;;;;;;6227986;28;89533;-76
2023/08/18 12:48:16;;;;;;;8.10;4.80;;;26.00;99.90;;;;;;6213268;28;90157;-75
2023/08/18 12:51:19;;;;;;;6.93;4.80;;;26.10;99.90;;;;;;6219074;28;89226;-76
2023/08/18 12:54:21;;;;;;;6.38;4.75;;;26.20;99.90;;;;;;6222234;28;89044;-76
2023/08/18 12:57:23;;;;;;;6.45;4.60;;;26.30;99.90;;;;;;6215217;28;87970;-76
2023/08/18 13:00:25;;;;;;;7.90;4.70;;;26.30;99.90;;;;;;6235654;28;88946;-76
2023/08/18 13:03:27;;;;;;;6.20;4.43;;;26.30;99.90;;;;;;6240170;28;89089;-76
2023/08/18 13:06:31;;;;;;;5.57;4.53;;;26.40;99.90;;;;;;6230586;28;89027;-77
2023/08/18 13:09:33;;;;;;;6.90;4.38;;;26.40;99.90;;;;;;6227600;28;88349;-76
2023/08/18 13:12:36;;;;;;;7.70;4.72;;;26.40;99.90;;;;;;6212026;28;89119;-76
2023/08/18 13:15:38;;;;;;;8.30;4.65;;;26.40;99.90;;;;;;6220641;28;89182;-76
2023/08/18 13:18:40;;;;;;;7.97;4.63;;;26.40;99.90;;;;;;6216488;28;90036;-74
2023/08/18 13:21:44;;;;;;;7.60;5.13;;;26.40;99.90;;;;;;6197011;28;88015;-79
2023/08/18 13:24:46;;;;;;;8.23;4.95;;;26.40;99.90;;;;;;6180333;28;89060;-74
2023/08/18 13:27:47;;;;;;;8.50;4.80;;;26.30;99.90;;;;;;6190435;28;88943;-74
2023/08/18 13:30:49;;;;;;;6.80;4.45;;;26.30;99.90;;;;;;6204491;28;88247;-75
2023/08/18 13:33:51;;;;;;;7.20;4.40;;;26.30;99.90;;;;;;6203193;28;89403;-75
2023/08/18 13:36:55;;;;;;;7.38;4.78;;;26.20;99.90;;;;;;6202715;28;89087;-74
2023/08/18 13:39:57;;;;;;;5.85;4.10;;;26.20;99.90;;;;;;6205285;28;87536;-75
2023/08/18 13:42:59;;;;;;;6.03;4.40;;;26.20;99.90;;;;;;6204515;28;89150;-75
2023/08/18 13:46:01;;;;;;;4.75;3.90;;;26.20;99.90;;;;;;6199224;28;88974;-74
2023/08/18 13:49:03;;;;;;;5.07;4.47;;;26.20;99.90;;;;;;6192020;28;88926;-76
2023/08/18 13:52:07;;;;;;;5.45;4.45;;;26.20;99.90;;;;;;6188439;28;90279;-76
2023/08/18 13:55:09;;;;;;;7.20;4.45;;;26.20;99.90;;;;;;6206406;28;89033;-75
2023/08/18 13:58:11;;;;;;;9.35;5.00;;;26.20;99.90;;;;;;6191375;28;89560;-75
2023/08/18 14:01:13;;;;;;;9.32;5.68;;;26.10;99.90;;;;;;6199407;28;89276;-75
2023/08/18 14:04:17;;;;;;;13.63;6.43;;;26.20;99.90;;;;;;6201364;28;89647;-75
2023/08/18 14:07:21;;;;;;;16.05;7.25;;;26.20;99.90;;;;;;6208739;28;89105;-75
2023/08/18 14:10:23;;;;;;;16.83;8.02;;;26.20;99.90;;;;;;6207295;28;88364;-76
2023/08/18 14:13:25;;;;;;;12.48;7.05;;;26.20;99.90;;;;;;6199908;28;89385;-75
2023/08/18 14:16:27;;;;;;;14.70;6.97;;;26.20;99.90;;;;;;6189766;28;89140;-75
2023/08/18 14:19:29;;;;;;;13.35;7.00;;;26.20;99.90;;;;;;6196301;28;90192;-76
2023/08/18 14:22:32;;;;;;;12.95;6.88;;;26.20;99.90;;;;;;6190599;28;88969;-74
2023/08/18 14:25:34;;;;;;;12.43;6.85;;;26.20;99.90;;;;;;6197747;28;89362;-75
2023/08/18 14:28:36;;;;;;;12.95;6.63;;;26.10;99.90;;;;;;6201380;28;89225;-75
2023/08/18 14:31:38;;;;;;;11.30;6.13;;;26.10;99.90;;;;;;6200075;28;89447;-76
2023/08/18 14:34:45;;;;;;;10.98;6.57;;;26.10;99.90;;;;;;6197617;28;89062;-77
2023/08/18 14:37:48;;;;;;;11.05;6.57;;;26.10;99.90;;;;;;6198098;28;89230;-76
2023/08/18 14:40:50;;;;;;;10.98;6.63;;;26.20;99.90;;;;;;6186629;28;88462;-76
2023/08/18 14:43:52;;;;;;;11.05;6.45;;;26.10;99.90;;;;;;6204056;28;89328;-76
2023/08/18 14:46:54;;;;;;;10.90;6.03;;;26.20;99.90;;;;;;6184472;28;89111;-75
2023/08/18 14:49:56;;;;;;;10.98;6.43;;;26.20;99.90;;;;;;6195708;28;90337;-77
2023/08/18 14:53:00;;;;;;;11.75;6.25;;;26.10;99.90;;;;;;6194310;28;88795;-75
2023/08/18 14:56:03;;;;;;;14.50;6.93;;;26.10;99.90;;;;;;6188866;28;89107;-76
2023/08/18 14:59:07;;;;;;;10.57;6.35;;;26.10;99.90;;;;;;6197078;28;89556;-76
2023/08/18 15:02:10;;;;;;;9.93;6.10;;;26.10;99.90;;;;;;6204096;28;88353;-75
2023/08/18 15:05:12;;;;;;;9.63;6.18;;;26.10;99.90;;;;;;6202190;28;89063;-76
2023/08/18 15:08:16;;;;;;;11.45;6.47;;;26.20;99.90;;;;;;6185977;28;89160;-75
2023/08/18 15:11:18;;;;;;;11.77;6.43;;;26.20;99.90;;;;;;6186977;28;88160;-75
2023/08/18 15:14:20;;;;;;;9.60;6.35;;;26.10;99.90;;;;;;6189004;28;89050;-77
2023/08/18 15:17:22;;;;;;;10.27;6.03;;;26.20;99.90;;;;;;6195452;28;88219;-75
2023/08/18 15:20:25;;;;;;;9.63;5.80;;;26.20;99.90;;;;;;6195678;28;89639;-77
2023/08/18 15:23:29;;;;;;;8.95;5.68;;;26.20;99.90;;;;;;6200980;28;89478;-74
2023/08/18 15:26:31;;;;;;;10.65;6.20;;;26.10;99.90;;;;;;6206033;28;89125;-75
2023/08/18 15:29:33;;;;;;;8.27;5.82;;;26.20;99.90;;;;;;6204258;28;89079;-75
2023/08/18 15:32:35;;;;;;;8.77;5.80;;;26.20;99.90;;;;;;6192397;28;88439;-76
2023/08/18 15:35:42;;;;;;;8.90;5.75;;;26.20;99.90;;;;;;6192547;28;89062;-75
2023/08/18 15:38:46;;;;;;;8.75;5.97;;;26.20;99.90;;;;;;6194200;28;89356;-75
2023/08/18 15:41:48;;;;;;;8.65;5.60;;;26.20;99.90;;;;;;6197333;28;87174;-75
2023/08/18 15:44:50;;;;;;;8.73;5.90;;;26.20;99.90;;;;;;6194185;28;89378;-75
2023/08/18 15:47:52;;;;;;;8.10;5.32;;;26.20;99.90;;;;;;6189696;28;89014;-75
2023/08/18 15:50:54;;;;;;;8.77;5.97;;;26.20;99.90;;;;;;6194409;28;90038;-75